Time;durP1;ratioP1;P1;durP2;ratioP2;P2;SDS_P1;SDS_P2;PMS_P1;PMS_P2;Temp;Humidity;BMP_temperature;BMP_pressure;BME280_temperature;BME280_humidity;BME280_pressure;Samples;Min_cycle;Max_cycle;Signal;HPM_P1;HPM_P2
2022/02/22 00:02:47;;;;;;;0.00;0.00;;;;;;;4.46;100.00;100603.13;10419813;28;20268;-72
2022/02/22 00:07:48;;;;;;;0.00;0.00;;;;;;;4.48;100.00;100614.41;10429670;28;20777;-71
2022/02/22 00:12:48;;;;;;;0.00;0.00;;;;;;;4.50;100.00;100625.66;10418107;28;20033;-71
2022/02/22 00:17:48;;;;;;;0.00;0.00;;;;;;;4.45;100.00;100617.31;10417995;28;20284;-72
2022/02/22 00:22:49;;;;;;;0.00;0.00;;;;;;;4.36;100.00;100630.38;10427286;28;20025;-71
2022/02/22 00:27:50;;;;;;;0.00;0.00;;;;;;;4.24;100.00;100655.94;10414168;28;20028;-72
2022/02/22 00:32:52;;;;;;;0.00;0.00;;;;;;;4.22;100.00;100665.78;10414081;28;20396;-71
2022/02/22 00:37:52;;;;;;;0.00;0.00;;;;;;;4.19;100.00;100681.81;10400140;28;20025;-71
2022/02/22 00:42:53;;;;;;;0.00;0.00;;;;;;;4.20;100.00;100696.69;10440133;28;20017;-72
2022/02/22 00:47:53;;;;;;;0.00;0.00;;;;;;;4.20;100.00;100697.53;10421606;28;20014;-72
2022/02/22 00:52:55;;;;;;;0.00;0.00;;;;;;;4.17;100.00;100708.31;10434406;28;20033;-71
2022/02/22 00:57:55;;;;;;;0.00;0.00;;;;;;;4.21;100.00;100736.09;10420146;28;20079;-72
2022/02/22 01:02:55;;;;;;;0.00;0.00;;;;;;;4.23;100.00;100741.25;10418771;28;20075;-72
2022/02/22 01:07:56;;;;;;;0.00;0.00;;;;;;;4.23;100.00;100763.19;10441989;28;20017;-71
2022/02/22 01:12:57;;;;;;;0.00;0.00;;;;;;;4.21;100.00;100757.19;10430566;28;20287;-71
2022/02/22 01:17:59;;;;;;;0.00;0.00;;;;;;;4.19;100.00;100769.69;10424894;28;20014;-71
2022/02/22 01:22:59;;;;;;;0.00;0.00;;;;;;;4.18;100.00;100799.63;10425629;28;20396;-72
2022/02/22 01:27:59;;;;;;;0.00;0.00;;;;;;;4.18;100.00;100793.50;10450181;28;20025;-71
2022/02/22 01:32:59;;;;;;;0.00;0.00;;;;;;;4.19;100.00;100816.25;10447567;28;20510;-71
2022/02/22 01:38:00;;;;;;;0.00;0.00;;;;;;;4.18;100.00;100810.16;10411595;28;20022;-72
2022/02/22 01:43:00;;;;;;;0.00;0.00;;;;;;;4.15;100.00;100806.94;10411592;28;20507;-72
2022/02/22 01:48:01;;;;;;;0.00;0.00;;;;;;;4.12;100.00;100809.81;10410461;28;20021;-72
2022/02/22 01:53:02;;;;;;;0.00;0.00;;;;;;;4.09;100.00;100827.53;10436423;28;20283;-71
2022/02/22 01:58:03;;;;;;;0.00;0.00;;;;;;;4.10;100.00;100844.16;10438461;28;20036;-72
2022/02/22 02:03:03;;;;;;;0.00;0.00;;;;;;;4.08;100.00;100851.38;10435276;28;20380;-72
2022/02/22 02:08:04;;;;;;;0.00;0.00;;;;;;;4.08;100.00;100848.75;10441107;28;20021;-72
2022/02/22 02:13:04;;;;;;;0.00;0.00;;;;;;;4.07;100.00;100863.72;10441996;28;20023;-72
2022/02/22 02:18:05;;;;;;;0.00;0.00;;;;;;;4.06;100.00;100861.19;10409841;28;20523;-72
2022/02/22 02:23:05;;;;;;;0.00;0.00;;;;;;;4.03;100.00;100888.63;10409952;28;20495;-71
2022/02/22 02:28:06;;;;;;;0.00;0.00;;;;;;;4.03;100.00;100896.53;10409441;28;20546;-71
2022/02/22 02:33:06;;;;;;;0.00;0.00;;;;;;;4.00;100.00;100902.03;10409565;28;20048;-72
2022/02/22 02:38:06;;;;;;;0.00;0.00;;;;;;;3.96;100.00;100905.03;10409742;28;20025;-72
2022/02/22 02:43:07;;;;;;;0.00;0.00;;;;;;;3.95;100.00;100919.97;10405280;28;20047;-72
2022/02/22 02:48:07;;;;;;;0.00;0.00;;;;;;;3.95;100.00;100917.34;10431564;28;20024;-72
2022/02/22 02:53:07;;;;;;;0.00;0.00;;;;;;;3.89;100.00;100917.78;10408326;28;20846;-72
2022/02/22 02:58:08;;;;;;;0.00;0.00;;;;;;;3.81;100.00;100923.66;10408632;28;20264;-72
2022/02/22 03:03:08;;;;;;;0.00;0.00;;;;;;;3.80;100.00;100939.56;10408596;28;20260;-72
2022/02/22 03:08:08;;;;;;;0.05;0.05;;;;;;;3.88;100.00;100942.47;10420444;28;20035;-72
2022/02/22 03:13:09;;;;;;;0.00;0.00;;;;;;;3.92;100.00;100945.72;10445862;28;20021;-72
2022/02/22 03:18:09;;;;;;;0.00;0.00;;;;;;;3.93;100.00;100953.53;10411516;28;20021;-72
2022/02/22 03:23:10;;;;;;;0.00;0.00;;;;;;;3.96;100.00;100955.09;10422109;28;20013;-72
2022/02/22 03:28:10;;;;;;;0.00;0.00;;;;;;;4.01;100.00;100943.22;10413534;28;20081;-72
2022/02/22 03:33:11;;;;;;;0.00;0.00;;;;;;;4.06;100.00;100956.09;10408052;28;20480;-73
2022/02/22 03:38:11;;;;;;;0.00;0.00;;;;;;;4.09;100.00;100972.50;10426985;28;20025;-73
2022/02/22 03:43:12;;;;;;;0.00;0.00;;;;;;;4.10;100.00;100994.44;10425397;28;20147;-72
2022/02/22 03:48:12;;;;;;;0.00;0.00;;;;;;;4.07;100.00;101008.72;10438421;28;20071;-71
2022/02/22 03:53:12;;;;;;;0.00;0.00;;;;;;;4.01;100.00;101006.50;10441872;28;20024;-71
2022/02/22 03:58:13;;;;;;;0.50;0.23;;;;;;;4.02;100.00;101007.34;10418325;28;20024;-72
2022/02/22 04:03:13;;;;;;;0.00;0.00;;;;;;;3.97;100.00;101010.31;10418190;28;20354;-72
2022/02/22 04:08:14;;;;;;;0.00;0.00;;;;;;;3.97;100.00;101028.78;10451958;28;20025;-72
2022/02/22 04:13:14;;;;;;;0.00;0.00;;;;;;;4.01;100.00;101014.41;10440872;28;20279;-72
2022/02/22 04:18:15;;;;;;;0.00;0.00;;;;;;;4.08;100.00;101041.19;10417086;28;20468;-72
2022/02/22 04:23:15;;;;;;;0.00;0.00;;;;;;;4.14;100.00;101039.88;10451629;28;20024;-72
2022/02/22 04:28:15;;;;;;;0.00;0.00;;;;;;;4.22;100.00;101038.38;10455456;28;20028;-72
2022/02/22 04:33:16;;;;;;;0.00;0.00;;;;;;;4.31;100.00;101048.25;10455067;28;20321;-72
2022/02/22 04:38:16;;;;;;;0.00;0.00;;;;;;;4.33;100.00;101056.03;10446976;28;20554;-72
2022/02/22 04:43:16;;;;;;;0.00;0.00;;;;;;;4.34;100.00;101052.44;10417322;28;20252;-72
2022/02/22 04:48:17;;;;;;;0.00;0.00;;;;;;;4.35;100.00;101075.22;10418238;28;20039;-72
2022/02/22 04:53:17;;;;;;;0.00;0.00;;;;;;;4.34;100.00;101070.06;10408023;28;20025;-72
2022/02/22 04:58:18;;;;;;;0.00;0.00;;;;;;;4.33;100.00;101071.84;10412821;28;20033;-72
2022/02/22 05:03:18;;;;;;;0.00;0.00;;;;;;;4.35;100.00;101098.94;10415061;28;20057;-72
2022/02/22 05:08:19;;;;;;;0.00;0.00;;;;;;;4.35;100.00;101091.03;10423253;28;20057;-72
2022/02/22 05:13:19;;;;;;;0.00;0.00;;;;;;;4.34;100.00;101104.34;10422550;28;20038;-71
2022/02/22 05:18:19;;;;;;;0.00;0.00;;;;;;;4.35;100.00;101116.56;10428885;28;20025;-72
2022/02/22 05:23:25;;;;;;;0.00;0.00;;;;;;;4.32;100.00;101118.47;10422285;28;20026;-71
2022/02/22 05:28:27;;;;;;;0.00;0.00;;;;;;;4.11;100.00;101106.03;10442916;28;20028;-72
2022/02/22 05:33:27;;;;;;;0.00;0.00;;;;;;;3.94;100.00;101107.22;10428725;28;20036;-72
2022/02/22 05:38:27;;;;;;;0.00;0.00;;;;;;;3.88;100.00;101113.78;10422623;28;20043;-72
2022/02/22 05:43:28;;;;;;;0.00;0.00;;;;;;;3.93;100.00;101121.38;10418797;28;20033;-72
2022/02/22 05:48:28;;;;;;;0.00;0.00;;;;;;;3.91;100.00;101120.63;10428765;28;20024;-72
2022/02/22 05:53:28;;;;;;;0.00;0.00;;;;;;;3.88;100.00;101126.94;10425182;28;20037;-72
2022/02/22 05:58:29;;;;;;;0.00;0.00;;;;;;;3.84;100.00;101143.94;10412545;28;20271;-72
2022/02/22 06:03:29;;;;;;;0.00;0.00;;;;;;;3.81;100.00;101152.91;10413823;28;20104;-72
2022/02/22 06:08:29;;;;;;;0.00;0.00;;;;;;;3.79;100.00;101153.94;10431431;28;20557;-72
2022/02/22 06:13:29;;;;;;;0.00;0.00;;;;;;;3.81;100.00;101160.81;10434772;28;20633;-71
2022/02/22 06:18:30;;;;;;;0.00;0.00;;;;;;;3.84;100.00;101170.28;10407733;28;20189;-72
2022/02/22 06:23:30;;;;;;;0.00;0.00;;;;;;;3.90;100.00;101179.53;10423117;28;20255;-72
2022/02/22 06:28:31;;;;;;;0.00;0.00;;;;;;;3.94;100.00;101173.13;10438151;28;20220;-72
2022/02/22 06:33:33;;;;;;;0.00;0.00;;;;;;;3.96;100.00;101187.88;10432384;28;20295;-72
2022/02/22 06:38:34;;;;;;;0.00;0.00;;;;;;;3.93;100.00;101187.25;10443076;28;20048;-72
2022/02/22 06:43:34;;;;;;;0.00;0.00;;;;;;;3.87;100.00;101196.44;10414757;28;20488;-72
2022/02/22 06:48:35;;;;;;;0.00;0.00;;;;;;;3.89;100.00;101197.13;10414784;28;20041;-72
2022/02/22 06:53:35;;;;;;;0.00;0.00;;;;;;;3.95;100.00;101222.22;10416550;28;20026;-73
2022/02/22 06:58:35;;;;;;;0.00;0.00;;;;;;;4.03;100.00;101220.75;10421205;28;20071;-72
2022/02/22 07:03:35;;;;;;;0.00;0.00;;;;;;;4.13;100.00;101228.00;10436165;28;20396;-72
2022/02/22 07:08:36;;;;;;;0.00;0.00;;;;;;;4.20;100.00;101237.19;10417547;28;20120;-72
2022/02/22 07:13:36;;;;;;;0.00;0.00;;;;;;;4.24;100.00;101242.13;10418296;28;20744;-71
2022/02/22 07:18:36;;;;;;;0.00;0.00;;;;;;;4.26;100.00;101244.66;10410290;28;20027;-72
2022/02/22 07:23:37;;;;;;;0.00;0.00;;;;;;;4.27;100.00;101244.53;10407466;28;20025;-72
2022/02/22 07:28:37;;;;;;;0.00;0.00;;;;;;;4.31;100.00;101261.00;10439896;28;20364;-72
2022/02/22 07:33:40;;;;;;;0.10;0.10;;;;;;;4.31;100.00;101269.75;10431036;28;20122;-72
2022/02/22 07:38:41;;;;;;;0.00;0.00;;;;;;;4.34;100.00;101271.34;10425725;28;20440;-73
2022/02/22 07:43:41;;;;;;;0.00;0.00;;;;;;;4.31;100.00;101292.66;10443236;28;20045;-72
2022/02/22 07:48:41;;;;;;;0.00;0.00;;;;;;;4.29;100.00;101299.81;10392714;28;20643;-72
2022/02/22 07:53:46;;;;;;;0.00;0.00;;;;;;;4.31;100.00;101298.78;10438820;28;20017;-72
2022/02/22 07:58:46;;;;;;;0.00;0.00;;;;;;;4.34;100.00;101295.09;10420592;28;20318;-72
2022/02/22 08:03:47;;;;;;;0.08;0.08;;;;;;;4.47;99.99;101313.50;10414379;28;20013;-72
2022/02/22 08:08:47;;;;;;;0.00;0.00;;;;;;;4.62;100.00;101314.22;10431094;28;20024;-73
2022/02/22 08:13:48;;;;;;;0.00;0.00;;;;;;;4.78;100.00;101328.03;10401940;28;20025;-73
2022/02/22 08:18:48;;;;;;;0.00;0.00;;;;;;;4.95;100.00;101321.53;10422231;28;20026;-73
2022/02/22 08:23:49;;;;;;;0.00;0.00;;;;;;;5.13;99.19;101324.66;10413842;28;20102;-72
2022/02/22 08:28:50;;;;;;;0.10;0.10;;;;;;;5.26;97.46;101327.22;10411943;28;20028;-72
2022/02/22 08:33:52;;;;;;;0.00;0.00;;;;;;;5.39;95.73;101331.50;10414086;28;20218;-72
2022/02/22 08:38:53;;;;;;;0.00;0.00;;;;;;;5.77;95.49;101348.94;10414051;28;20465;-73
2022/02/22 08:43:54;;;;;;;0.00;0.00;;;;;;;5.86;94.32;101356.19;10413757;28;20100;-72
2022/02/22 08:48:54;;;;;;;0.00;0.00;;;;;;;5.84;94.30;101358.09;10412485;28;20020;-72
2022/02/22 08:53:55;;;;;;;0.08;0.08;;;;;;;5.82;93.47;101359.19;10411982;28;20017;-72
2022/02/22 08:58:55;;;;;;;0.00;0.00;;;;;;;5.77;93.30;101351.59;10413513;28;20111;-72
2022/02/22 09:03:55;;;;;;;0.00;0.00;;;;;;;5.97;93.25;101360.69;10413559;28;20017;-72
2022/02/22 09:08:55;;;;;;;0.00;0.00;;;;;;;6.33;91.55;101369.41;10413173;28;20021;-72
2022/02/22 09:13:56;;;;;;;0.00;0.00;;;;;;;6.44;90.26;101350.06;10412394;28;20053;-73
2022/02/22 09:18:56;;;;;;;0.00;0.00;;;;;;;6.44;89.53;101363.28;10412683;28;20032;-72
2022/02/22 09:23:57;;;;;;;0.00;0.00;;;;;;;6.56;90.00;101354.41;10410597;28;20013;-72
2022/02/22 09:28:58;;;;;;;0.00;0.00;;;;;;;6.95;87.53;101354.84;10412662;28;20369;-72
2022/02/22 09:33:59;;;;;;;0.00;0.00;;;;;;;7.28;85.78;101353.09;10411617;28;20021;-73
2022/02/22 09:38:59;;;;;;;0.05;0.05;;;;;;;7.38;84.49;101354.84;10412618;28;20396;-73
2022/02/22 09:43:59;;;;;;;0.00;0.00;;;;;;;7.44;84.91;101364.13;10412077;28;20060;-73
2022/02/22 09:49:00;;;;;;;0.05;0.05;;;;;;;7.35;84.18;101370.19;10404620;28;20017;-73
2022/02/22 09:54:00;;;;;;;0.00;0.00;;;;;;;7.25;87.28;101378.88;10408792;28;20036;-73
2022/02/22 09:59:00;;;;;;;0.10;0.10;;;;;;;7.08;89.79;101386.50;10409613;28;20396;-73
2022/02/22 10:04:01;;;;;;;0.03;0.03;;;;;;;6.98;89.64;101371.34;10411122;28;20021;-72
2022/02/22 10:09:02;;;;;;;0.10;0.10;;;;;;;7.00;91.43;101387.09;10410712;28;20100;-72
2022/02/22 10:14:02;;;;;;;0.00;0.00;;;;;;;7.17;93.22;101385.75;10410316;28;20291;-73
2022/02/22 10:19:03;;;;;;;0.00;0.00;;;;;;;7.37;93.32;101370.91;10410270;28;20027;-73
2022/02/22 10:24:07;;;;;;;0.00;0.00;;;;;;;7.38;91.03;101368.13;10410578;28;20373;-73
2022/02/22 10:29:13;;;;;;;0.00;0.00;;;;;;;7.49;92.34;101376.03;10407808;28;20481;-72
2022/02/22 10:34:14;;;;;;;0.00;0.00;;;;;;;7.48;92.47;101384.13;10391678;28;20481;-73
2022/02/22 10:39:18;;;;;;;0.00;0.00;;;;;;;7.33;89.32;101377.41;10409525;28;20025;-72
2022/02/22 10:44:35;;;;;;;0.00;0.00;;;;;;;7.33;92.23;101375.63;10392295;28;20079;-71
2022/02/22 10:49:37;;;;;;;0.00;0.00;;;;;;;7.35;90.00;101355.13;10400841;28;20029;-73
2022/02/22 10:54:41;;;;;;;0.00;0.00;;;;;;;7.39;91.34;101374.28;10405447;28;20056;-75
2022/02/22 10:59:42;;;;;;;0.00;0.00;;;;;;;7.46;92.67;101370.16;10419891;28;20037;-74
2022/02/22 11:04:43;;;;;;;0.00;0.00;;;;;;;7.36;91.41;101358.59;10395306;28;20120;-74
2022/02/22 11:09:47;;;;;;;0.00;0.00;;;;;;;7.32;93.60;101351.88;10407384;28;20021;-74
2022/02/22 11:14:48;;;;;;;;;;;;;;;7.27;92.81;101336.34;10415747;28;20076;-75
2022/02/22 11:19:51;;;;;;;0.10;0.10;;;;;;;7.25;93.08;101325.06;10421318;28;19928;-74
2022/02/22 11:24:59;;;;;;;0.10;0.10;;;;;;;7.22;93.25;101312.88;10419482;28;20064;-74
2022/02/22 11:30:25;;;;;;;0.00;0.00;;;;;;;7.18;91.50;101318.56;10421870;28;20111;-74
2022/02/22 11:35:27;;;;;;;0.00;0.00;;;;;;;7.14;92.29;101311.84;10406170;28;20484;-74
2022/02/22 11:40:31;;;;;;;0.10;0.10;;;;;;;7.15;91.96;101318.81;10422748;28;20017;-74
2022/02/22 11:45:31;;;;;;;0.00;0.00;;;;;;;7.11;92.57;101315.56;10394672;28;20455;-74
2022/02/22 11:50:39;;;;;;;0.08;0.08;;;;;;;7.18;92.69;101327.34;10427066;28;20053;-74
2022/02/22 11:55:40;;;;;;;0.10;0.10;;;;;;;7.16;88.92;101321.34;10418195;28;20021;-74
2022/02/22 12:00:40;;;;;;;0.10;0.10;;;;;;;7.21;90.42;101290.03;10403552;28;20026;-75
2022/02/22 12:05:51;;;;;;;0.10;0.10;;;;;;;7.23;89.43;101306.59;10416349;28;20021;-75
2022/02/22 12:11:01;;;;;;;0.00;0.00;;;;;;;7.21;90.04;101291.81;10398612;28;20271;-74
2022/02/22 12:16:11;;;;;;;0.00;0.00;;;;;;;7.19;90.76;101297.25;10429731;28;20025;-74
2022/02/22 12:21:13;;;;;;;0.00;0.00;;;;;;;7.10;87.68;101284.75;10438267;28;20044;-74
2022/02/22 12:26:15;;;;;;;0.00;0.00;;;;;;;7.02;88.98;101277.41;10424170;28;20123;-74
2022/02/22 12:31:32;;;;;;;0.10;0.10;;;;;;;6.93;88.91;101272.03;10441468;28;20055;-74
2022/02/22 12:36:34;;;;;;;0.10;0.10;;;;;;;6.86;91.54;101276.13;10405230;28;20025;-74
2022/02/22 12:41:37;;;;;;;0.00;0.00;;;;;;;6.82;93.99;101269.41;10426983;28;20048;-74
2022/02/22 12:46:38;;;;;;;0.00;0.00;;;;;;;6.74;92.38;101247.03;10441889;28;20502;-74
2022/02/22 12:51:41;;;;;;;0.10;0.10;;;;;;;6.69;93.61;101225.41;10430779;28;20028;-74
2022/02/22 12:56:50;;;;;;;0.10;0.10;;;;;;;6.71;95.38;101196.97;10414543;28;20113;-74
2022/02/22 13:01:52;;;;;;;0.00;0.00;;;;;;;6.68;96.25;101165.47;10420460;28;20506;-74
2022/02/22 13:06:55;;;;;;;0.00;0.00;;;;;;;6.64;97.45;101156.09;10431039;28;20028;-74
2022/02/22 13:11:58;;;;;;;0.00;0.00;;;;;;;6.56;97.51;101169.13;10406473;28;20022;-74
2022/02/22 13:17:02;;;;;;;0.00;0.00;;;;;;;6.55;97.71;101167.47;10425474;28;20017;-74
2022/02/22 13:22:06;;;;;;;0.00;0.00;;;;;;;6.74;99.38;101141.13;10424382;28;20396;-74
2022/02/22 13:27:07;;;;;;;0.00;0.00;;;;;;;6.90;99.11;101135.44;10412937;28;20324;-74
2022/02/22 13:32:12;;;;;;;0.00;0.00;;;;;;;6.98;99.65;101134.78;10432773;28;20025;-74
2022/02/22 13:37:26;;;;;;;0.10;0.10;;;;;;;6.87;99.83;101124.25;10425640;28;20469;-74
2022/02/22 13:42:26;;;;;;;0.10;0.10;;;;;;;6.71;100.00;101106.97;10438251;28;20025;-74
2022/02/22 13:47:36;;;;;;;0.00;0.00;;;;;;;6.57;100.00;101096.69;10404412;28;20280;-74
2022/02/22 13:52:37;;;;;;;0.03;0.03;;;;;;;6.49;100.00;101075.34;10419131;28;20365;-74
2022/02/22 13:57:38;;;;;;;0.10;0.10;;;;;;;6.51;100.00;101060.97;10422700;28;20104;-74
2022/02/22 14:02:38;;;;;;;0.00;0.00;;;;;;;6.46;100.00;101057.91;10433768;28;20260;-74
2022/02/22 14:07:39;;;;;;;0.00;0.00;;;;;;;6.42;100.00;101045.03;10433955;28;20021;-74
2022/02/22 14:12:39;;;;;;;0.00;0.00;;;;;;;6.31;100.00;101038.84;10420142;28;20793;-74
2022/02/22 14:17:39;;;;;;;0.07;0.07;;;;;;;6.23;100.00;101025.41;10418593;28;20033;-74
2022/02/22 14:22:40;;;;;;;0.07;0.07;;;;;;;6.16;100.00;101003.03;10426040;28;20020;-74
2022/02/22 14:27:40;;;;;;;0.00;0.00;;;;;;;6.18;100.00;100977.31;10430128;28;20017;-74
2022/02/22 14:32:40;;;;;;;0.00;0.00;;;;;;;6.13;100.00;100976.84;10404304;28;20480;-75
2022/02/22 14:37:41;;;;;;;0.07;0.07;;;;;;;6.07;100.00;100969.44;10393409;28;20044;-74
2022/02/22 14:42:43;;;;;;;0.10;0.10;;;;;;;6.02;100.00;100947.81;10433226;28;20761;-74
2022/02/22 14:47:43;;;;;;;0.00;0.00;;;;;;;5.97;100.00;100934.16;10443262;28;20021;-74
2022/02/22 14:52:44;;;;;;;0.00;0.00;;;;;;;5.82;100.00;100923.00;10426794;28;20021;-75
2022/02/22 14:57:44;;;;;;;0.10;0.10;;;;;;;5.69;100.00;100931.06;10391867;28;20025;-75
2022/02/22 15:02:44;;;;;;;0.00;0.00;;;;;;;5.60;100.00;100911.53;10403992;28;20017;-75
2022/02/22 15:07:45;;;;;;;0.00;0.00;;;;;;;5.54;100.00;100900.63;10427869;28;20025;-74
2022/02/22 15:12:45;;;;;;;0.00;0.00;;;;;;;5.48;100.00;100891.38;10425143;28;20725;-75
2022/02/22 15:17:45;;;;;;;0.00;0.00;;;;;;;5.47;100.00;100876.50;10407318;28;20031;-75
2022/02/22 15:22:46;;;;;;;0.00;0.00;;;;;;;5.46;100.00;100864.25;10410339;28;20022;-74
2022/02/22 15:27:46;;;;;;;0.00;0.00;;;;;;;5.44;100.00;100843.25;10409353;28;20423;-74
2022/02/22 15:32:46;;;;;;;0.00;0.00;;;;;;;5.43;100.00;100823.06;10409557;28;20711;-74
2022/02/22 15:37:47;;;;;;;0.00;0.00;;;;;;;5.42;100.00;100810.84;10410524;28;20678;-74
2022/02/22 15:42:47;;;;;;;0.00;0.00;;;;;;;5.40;100.00;100818.03;10392314;28;20013;-74
2022/02/22 15:47:47;;;;;;;0.03;0.03;;;;;;;5.42;100.00;100791.50;10410315;28;20065;-74
2022/02/22 15:52:47;;;;;;;0.00;0.00;;;;;;;5.39;100.00;100783.84;10416224;28;20026;-74
2022/02/22 15:57:48;;;;;;;0.00;0.00;;;;;;;5.39;100.00;100774.09;10418138;28;20025;-74
2022/02/22 16:02:48;;;;;;;0.00;0.00;;;;;;;5.40;100.00;100777.56;10417357;28;20025;-74
2022/02/22 16:07:50;;;;;;;0.00;0.00;;;;;;;5.39;100.00;100752.97;10399629;28;20348;-74
2022/02/22 16:12:51;;;;;;;0.00;0.00;;;;;;;5.41;100.00;100766.91;10417455;28;20530;-75
2022/02/22 16:17:51;;;;;;;0.00;0.00;;;;;;;5.40;100.00;100737.97;10417413;28;20061;-74
2022/02/22 16:22:52;;;;;;;0.00;0.00;;;;;;;5.38;100.00;100735.47;10416769;28;20071;-74
2022/02/22 16:27:52;;;;;;;0.00;0.00;;;;;;;5.40;100.00;100741.44;10416988;28;20021;-75
2022/02/22 16:32:52;;;;;;;0.00;0.00;;;;;;;5.41;100.00;100719.34;10397975;28;20025;-74
2022/02/22 16:37:53;;;;;;;0.00;0.00;;;;;;;5.43;100.00;100700.72;10415228;28;20025;-74
2022/02/22 16:42:53;;;;;;;0.00;0.00;;;;;;;5.44;100.00;100695.31;10450875;28;20110;-74
2022/02/22 16:47:54;;;;;;;0.00;0.00;;;;;;;5.45;100.00;100675.84;10455338;28;20027;-74
2022/02/22 16:52:54;;;;;;;0.00;0.00;;;;;;;5.49;100.00;100672.94;10429389;28;20388;-74
2022/02/22 16:57:56;;;;;;;0.00;0.00;;;;;;;5.52;100.00;100670.03;10395967;28;20135;-74
2022/02/22 17:02:56;;;;;;;0.00;0.00;;;;;;;5.52;100.00;100670.03;10440781;28;20017;-74
2022/02/22 17:07:56;;;;;;;0.00;0.00;;;;;;;5.57;100.00;100657.28;10454401;28;20411;-74
2022/02/22 17:12:57;;;;;;;0.03;0.03;;;;;;;5.61;100.00;100654.25;10440171;28;20089;-73
2022/02/22 17:17:58;;;;;;;0.00;0.00;;;;;;;5.67;100.00;100642.31;10454151;28;20031;-74
2022/02/22 17:22:58;;;;;;;0.00;0.00;;;;;;;5.76;100.00;100652.09;10420607;28;20021;-74
2022/02/22 17:27:58;;;;;;;0.10;0.10;;;;;;;5.82;100.00;100646.28;10454004;28;20047;-74
2022/02/22 17:32:59;;;;;;;0.00;0.00;;;;;;;5.85;100.00;100640.72;10396065;28;20029;-75
2022/02/22 17:37:59;;;;;;;0.00;0.00;;;;;;;5.89;100.00;100618.34;10420054;28;20025;-74
2022/02/22 17:42:59;;;;;;;0.00;0.00;;;;;;;5.93;100.00;100597.78;10444900;28;20021;-74
2022/02/22 17:48:00;;;;;;;0.00;0.00;;;;;;;6.01;100.00;100584.72;10417967;28;20369;-73
2022/02/22 17:53:00;;;;;;;0.10;0.10;;;;;;;6.08;100.00;100591.16;10411087;28;20048;-73
2022/02/22 17:58:00;;;;;;;0.03;0.03;;;;;;;6.12;100.00;100589.06;10411071;28;20388;-74
2022/02/22 18:03:01;;;;;;;0.03;0.03;;;;;;;6.15;100.00;100583.50;10409283;28;20029;-74
2022/02/22 18:08:02;;;;;;;0.00;0.00;;;;;;;6.17;100.00;100568.34;10393391;28;20017;-74
2022/02/22 18:13:02;;;;;;;0.00;0.00;;;;;;;6.20;100.00;100581.31;10411243;28;20755;-76
2022/02/22 18:18:02;;;;;;;0.00;0.00;;;;;;;6.27;100.00;100577.13;10412582;28;20021;-75
2022/02/22 18:23:03;;;;;;;0.00;0.00;;;;;;;6.32;100.00;100576.72;10411927;28;20017;-74
2022/02/22 18:28:04;;;;;;;0.00;0.00;;;;;;;6.35;100.00;100584.38;10412190;28;20564;-74
2022/02/22 18:33:04;;;;;;;0.00;0.00;;;;;;;6.41;100.00;100577.69;10411085;28;20504;-74
2022/02/22 18:38:04;;;;;;;0.10;0.10;;;;;;;6.45;100.00;100609.03;10411661;28;20041;-74
2022/02/22 18:43:05;;;;;;;0.10;0.10;;;;;;;6.51;100.00;100621.69;10411264;28;20025;-74
2022/02/22 18:48:05;;;;;;;0.00;0.00;;;;;;;6.58;100.00;100628.13;10411607;28;20271;-74
2022/02/22 18:53:06;;;;;;;0.00;0.00;;;;;;;6.59;100.00;100636.91;10411198;28;20033;-74
2022/02/22 18:58:07;;;;;;;0.00;0.00;;;;;;;6.53;100.00;100650.69;10393556;28;20029;-74
2022/02/22 19:03:07;;;;;;;0.10;0.10;;;;;;;6.41;100.00;100659.72;10389535;28;20018;-74
2022/02/22 19:08:08;;;;;;;0.00;0.00;;;;;;;6.36;100.00;100654.81;10393347;28;20396;-74
2022/02/22 19:13:08;;;;;;;0.00;0.00;;;;;;;6.31;100.00;100668.47;10410003;28;20052;-74
2022/02/22 19:18:09;;;;;;;0.10;0.10;;;;;;;6.27;100.00;100675.00;10393082;28;20473;-74
2022/02/22 19:23:10;;;;;;;0.00;0.00;;;;;;;6.25;100.00;100700.72;10410185;28;20388;-74
2022/02/22 19:28:11;;;;;;;0.00;0.00;;;;;;;6.21;100.00;100732.88;10409881;28;20030;-76
2022/02/22 19:33:11;;;;;;;0.00;0.00;;;;;;;6.17;100.00;100728.81;10392254;28;20120;-75
2022/02/22 19:38:11;;;;;;;0.00;0.00;;;;;;;6.10;100.00;100734.63;10409737;28;20542;-75
2022/02/22 19:43:12;;;;;;;0.00;0.00;;;;;;;6.05;100.00;100778.31;10391981;28;20116;-75
2022/02/22 19:48:13;;;;;;;0.00;0.00;;;;;;;5.97;100.00;100780.78;10410048;28;20029;-75
2022/02/22 19:53:14;;;;;;;0.00;0.00;;;;;;;5.94;100.00;100802.22;10409261;28;20021;-74
2022/02/22 19:58:16;;;;;;;0.00;0.00;;;;;;;5.89;100.00;100806.03;10409814;28;20032;-74
2022/02/22 20:03:16;;;;;;;0.00;0.00;;;;;;;5.81;100.00;100828.78;10391047;28;20034;-75
2022/02/22 20:08:17;;;;;;;0.00;0.00;;;;;;;5.72;100.00;100837.50;10409644;28;20481;-75
2022/02/22 20:13:17;;;;;;;0.00;0.00;;;;;;;5.68;100.00;100848.31;10408899;28;20052;-74
2022/02/22 20:18:18;;;;;;;0.00;0.00;;;;;;;5.77;100.00;100872.31;10409312;28;20029;-74
2022/02/22 20:23:18;;;;;;;0.10;0.10;;;;;;;5.80;100.00;100870.25;10391303;28;20265;-74
2022/02/22 20:28:18;;;;;;;0.00;0.00;;;;;;;5.83;100.00;100885.84;10408985;28;20268;-74
2022/02/22 20:33:19;;;;;;;0.00;0.00;;;;;;;5.86;100.00;100896.16;10408417;28;20291;-75
2022/02/22 20:38:20;;;;;;;0.00;0.00;;;;;;;5.88;100.00;100914.56;10412775;28;20407;-75
2022/02/22 20:43:20;;;;;;;0.00;0.00;;;;;;;5.86;100.00;100927.88;10415550;28;20486;-75
2022/02/22 20:48:21;;;;;;;0.00;0.00;;;;;;;5.79;100.00;100931.16;10416249;28;20396;-75
2022/02/22 20:53:21;;;;;;;0.00;0.00;;;;;;;5.65;100.00;100956.09;10415235;28;20083;-75
2022/02/22 20:58:21;;;;;;;0.00;0.00;;;;;;;5.50;100.00;100970.50;10415608;28;20508;-74
2022/02/22 21:03:22;;;;;;;0.10;0.10;;;;;;;5.41;100.00;100986.16;10414708;28;20022;-75
2022/02/22 21:08:22;;;;;;;0.00;0.00;;;;;;;5.36;100.00;100983.03;10397406;28;20286;-74
2022/02/22 21:13:22;;;;;;;0.00;0.00;;;;;;;5.39;100.00;101003.91;10414702;28;20079;-75
2022/02/22 21:18:23;;;;;;;0.00;0.00;;;;;;;5.39;100.00;101014.50;10414871;28;20271;-75
2022/02/22 21:23:23;;;;;;;0.00;0.00;;;;;;;5.32;100.00;101023.84;10414480;28;20021;-75
2022/02/22 21:28:24;;;;;;;0.00;0.00;;;;;;;5.24;100.00;101041.28;10414678;28;20025;-75
2022/02/22 21:33:25;;;;;;;0.00;0.00;;;;;;;5.13;100.00;101048.22;10405358;28;20060;-75
2022/02/22 21:38:26;;;;;;;0.00;0.00;;;;;;;5.07;100.00;101061.06;10396307;28;20057;-75
2022/02/22 21:43:27;;;;;;;0.00;0.00;;;;;;;4.97;100.00;101076.75;10403327;28;20025;-75
2022/02/22 21:48:27;;;;;;;0.00;0.00;;;;;;;4.91;100.00;101078.03;10414349;28;20029;-72
2022/02/22 21:53:27;;;;;;;0.00;0.00;;;;;;;4.86;100.00;101090.78;10411332;28;20501;-72
2022/02/22 21:58:28;;;;;;;0.00;0.00;;;;;;;4.82;100.00;101106.94;10396149;28;20316;-72
2022/02/22 22:03:30;;;;;;;0.00;0.00;;;;;;;4.80;100.00;101128.19;10412882;28;20021;-73
2022/02/22 22:08:30;;;;;;;0.08;0.08;;;;;;;4.74;100.00;101125.97;10413337;28;20483;-73
2022/02/22 22:13:31;;;;;;;0.05;0.05;;;;;;;4.73;100.00;101154.16;10412431;28;20484;-73
2022/02/22 22:18:32;;;;;;;0.00;0.00;;;;;;;4.67;100.00;101138.78;10413372;28;20021;-72
2022/02/22 22:23:34;;;;;;;0.00;0.00;;;;;;;4.66;100.00;101157.38;10412105;28;20256;-73
2022/02/22 22:28:34;;;;;;;0.00;0.00;;;;;;;4.64;100.00;101165.41;10412361;28;20021;-73
2022/02/22 22:33:36;;;;;;;0.00;0.00;;;;;;;4.64;100.00;101186.50;10411626;28;20362;-73
2022/02/22 22:38:38;;;;;;;0.00;0.00;;;;;;;4.60;100.00;101194.78;10411955;28;20269;-73
2022/02/22 22:43:38;;;;;;;0.00;0.00;;;;;;;4.56;100.00;101198.56;10411794;28;20021;-73
2022/02/22 22:48:39;;;;;;;0.00;0.00;;;;;;;4.50;100.00;101205.97;10411830;28;20025;-73
2022/02/22 22:53:39;;;;;;;0.00;0.00;;;;;;;4.42;100.00;101221.53;10411082;28;20038;-73
2022/02/22 22:58:39;;;;;;;0.00;0.00;;;;;;;4.37;100.00;101241.28;10411082;28;20021;-73
2022/02/22 23:03:41;;;;;;;0.00;0.00;;;;;;;4.36;100.00;101244.84;10410496;28;20041;-72
2022/02/22 23:14:00;;;;;;;0.00;0.00;;;;;;;4.34;100.00;101262.59;10411073;28;20029;-73